Terminal Aerodrome Forecast
Issued by NWS Spokane, WA

Home | Current Version | Previous Version | Text Only | Print | Product List | Glossary On
Versions: 1 2 3 4 5 6 7 8 9 10 11 12 13 14 15 16
000
FTUS46 KOTX 060528
TAFLWS
TAF
KLWS 060528Z 0606/0706 12004KT P6SM OVC050
     FM060900 13005KT 6SM -SN OVC030
     FM061600 VRB04KT P6SM VCSH SCT030 OVC050
     FM070100 27005KT P6SM FEW050 SCT200=

USA.gov is the U.S. government's official web portal to all federal, state and local government web resources and services.